Impacts TAF Board INFO
FOR SITUATIONAL AWARENESS. NOT TO BE USED FOR FLIGHT PLANNING PURPOSES.
IDs:

KPIT - Pittsburgh Intl, PA, US

Issued at 0528 UTC 22 Jul 2018
Updated at 0822 UTC 22 Jul 2018
Potential Impact None Slight Moderate High
Time0751Z 22/09Z 22/10Z 22/11Z 22/12Z 22/13Z 22/14Z 22/15Z 22/16Z 22/17Z 22/18Z 22/19Z 22/20Z 22/21Z>>
Type OBS PRVL PRVL PRVL PRVL PRVL PRVL PRVL PRVL PRVL PRVL PRVL PRVL PRVL
VIS 10 >6 >6 >6 >6 >6 >6 >6 >6 >6 >6 >6 >6 >6
CIG 100 100 25 25 25 25 35 35 35 35 35 35 35 35
Cover BKN BKN BKN BKN BKN BKN BKN BKN BKN BKN BKN BKN BKN BKN
FltCat VFR VFR MVFR MVFR MVFR MVFR VFR VFR VFR VFR VFR VFR VFR VFR
WX -- -- -- -- -- -- -- -- -- -- -- -- -SHRA VCTS -SHRA VCTS
WDir 80 80 VRB VRB VRB VRB 150 150 150 150 150 150 80 80
WSpd 5 5 5 5 5 5 5 5 5 5 5 5 5 5
WGst -- -- -- -- -- -- -- -- -- -- -- -- -- --

Raw TAF
KPIT 220528Z 2206/2312 08005KT P6SM BKN100
  FM221000 VRB05KT P6SM BKN025
  FM221400 15005KT P6SM BKN035
  FM222000 08005KT P6SM -SHRA VCTS BKN035CB
  FM222300 12005KT P6SM BKN060


Raw METAR
KPIT 220751Z 08005KT 10SM FEW030 BKN100 BKN150 17/14 A2973 RMK AO2 SLP068 T01670144 $
KPIT 220651Z 08005KT 10SM FEW030 BKN095 BKN130 17/14 A2976 RMK AO2 SLP076 T01720144 $
KPIT 220551Z 08009KT 10SM FEW020 BKN095 BKN170 17/14 A2977 RMK AO2 SLP082 T01720144 10228 20172 58016 $

METAR Board
Radar Display
Forecast Discussion

FOR SITUATIONAL AWARENESS. NOT TO BE USED FOR FLIGHT PLANNING PURPOSES.